Bordj Badji Mokhtar Airport

DATM · 阿尔及利亚

METAR DATM · Bordj Badji Mokhtar Airport

23 六月 22:30 LT
22m
使用的METAR站距离机场492 km。
罗盘
风向 的 风向 110° Bordj Badji Mokhtar Airport 8/26
风: 4 kt, 2 beaufort

3 kt

2 kt
改变
0 ft 2.000 4.000 6.000 8.000 10.000
Cloud Cloud Cloud Cloud
SCT 4.600
Cloud Cloud Cloud Cloud
SCT 10.000
METAR DAAT 232130Z 11004KT 4500 HZ SCT046 SCT100 30/04 Q1018

METAR Bordj Badji Mokhtar Airport - DATM/BMW

该字段位于阿尔及利亚中。 该机场位于纬度21,37820和经度0,92882。 该机场有一条跑道: 8/26. 本场的ICAO机场代码为DATM。 该机场的IATA代码为BMW。 机场在Alger FIR中。

该航空气象观测是针对Aguenar – Hadj Bey Akhamok Airport在2024年6月23日 22:30, 当地时间进行的。

机场观察

风向为110°,速度为4 kt。

可见度为4,5 km。

有疏云,零星散落的云朵在4.600 ft的高度 和 疏云,零星散落的云朵在10.000 ft的高度。 没有观察到天花板。

当前天气为阴霾。 温度和风寒是30 °C。 露点为4 °C,相对湿度为19%。 海平面上的气压为1018 hPa (QNH)。

白天

今天,太阳从06:15升起,在19:41降落。 这适用于Bordj Badji Mokhtar Airport,世界夏令时可能有所不同。 当地时间与世界标准时间之间的时差为+1 小时。 夏令时目前正在进行中。

公司介绍

我们没有关于这个机场的公司信息。

体会

到Vliegles.nl去找飞行课程,跳伞和其他飞行体验。 浏览页面,了解Bordj Badji Mokhtar Airport附近所有可用的活动。 你也可以使用搜索功能来寻找你所在地附近的特定飞行课程、跳伞或其他飞行体验。

跑道

Id 标题 侧风 逆风 侧风 %
8/26 080°-260° 2 kt 3 kt 50 %

逆风成分最大的方向会被突出显示,并用于横风计算。 这并不一定意味着这个方向在使用。

乌云

4.600 ft SCT 疏云,零星散落的云朵
10.000 ft SCT 疏云,零星散落的云朵

温度 & 天气

天气 阴霾
温度 30 °C
露点 4 °C
相对湿度 19%
Kp-index 0 (0-9)

白天

日出
05:54 (7:03)
中午
12:40
日落
19:26

小工具

你想在你的网站上有一个关于Bordj Badji Mokhtar Airport的当前航空天气(METAR)的小部件吗?

显示HTML代码
报告变更